Anticosti - eastern half: Past 24 Hour Conditions

 

St. Peters

07:00 AM ADT 17 April 2014
This table is a summary of hourly weather conditions for the past 24 hours.
Date / Time
(ADT)
Wind(knots) Conditions Visibility(km) Pressure(kPa) Air tempC) Relative humidity(%) Dew pointC) Wind Chill
17 April 2014
7:00 NNW 7 N/A N/A 104.1 -4 62 -10 -8
6:00 NNW 8 N/A N/A 104.0 -4 67 -9 -9
5:00 NNW 11 gust 18 N/A N/A 103.9 -4 65 -9 -10
4:00 NNW 10 gust 17 N/A N/A 103.8 -3 67 -9 -9
3:00 NW 16 gust 21 N/A N/A 103.7 -3 65 -9 -11
2:00 NW 13 gust 23 N/A N/A 103.6 -3 67 -8 -10
1:00 NW 13 gust 19 N/A N/A 103.4 -2 69 -7 -9
0:00 NW 12 N/A N/A 103.3 -2 72 -6 -8
16 April 2014
23:00 WNW 11 N/A N/A 103.2 -2 73 -6 -7
22:00 NW 8 gust 16 N/A N/A 103.0 -1 72 -6 -6
21:00 WNW 13 gust 18 N/A N/A 102.8 -1 70 -6 -7
20:00 WNW 14 gust 19 N/A N/A 102.7 -1 74 -5 -7
19:00 WNW 14 N/A N/A 102.5 0 73 -4 *
18:00 WNW 15 gust 22 N/A N/A 102.3 1 75 -3 *
17:00 WNW 16 gust 23 N/A N/A 102.1 1 77 -3 *
16:00 WNW 16 gust 22 N/A N/A 101.9 0 83 -2 *
15:00 WNW 14 gust 19 N/A N/A 101.6 0 97 0 *
14:00 WNW 13 gust 20 N/A N/A 101.5 0 96 0 *
13:00 W 15 gust 22 N/A N/A 101.2 3 96 3 *
12:00 WNW 6 N/A N/A 100.9 4 97 3 *
11:00 WNW 11 gust 20 N/A N/A 100.8 9 96 4 *
10:00 S 16 gust 28 N/A N/A 100.4 15 89 13 *
9:00 S 23 gust 34 N/A N/A 100.4 15 91 13 *
8:00 S 23 gust 29 N/A N/A 100.4 15 87 13 *
7:00 S 21 gust 32 N/A N/A 100.5 14 88 12 *
 
Map of Atlantic - Newfoundland marine weather areas Southwestern Grand Banks - 44138 Banquereau - 44139 Tail of the Bank - 44140 Nickerson Bank - 44251 Northeast Burgeo Bank - 44255 Blanc-Sablon Airport Cap Whittle Chevery Natashquan Airport Heath Point Miscou Island Grand Étang Ingonish Beach North Mountain St.Paul Island J.A. Douglas McCurdy Sydney Airport Charlottetown Airport East Point North Cape Argentia Bonavista Burgeo Cape Race Corner Brook Daniel's Harbour Englee Ferolle Point La Scie Port aux Basques Rocky Harbour Sagona Island St. Anthony Airport St. John's Int'l Airport St. Lawrence Stephenville Airport Twillingate Winterland Wreckhouse Cartwright Airport Mary's Harbour Grates Cove Pool's Island Marticot Island Long Pond Îles de la Madeleine Airport
Legend: buoyBuoy land stationLand Station